sensor_id;sensor_type;location;lat;lon;timestamp;P1;durP1;ratioP1;P2;durP2;ratioP2
66633;SDS011;53546;52.184;5.596;2023-03-04T00:00:52;4.38;;;1.65;;
66633;SDS011;53546;52.184;5.596;2023-03-04T00:03:18;5.13;;;1.60;;
66633;SDS011;53546;52.184;5.596;2023-03-04T00:05:43;3.20;;;1.40;;
66633;SDS011;53546;52.184;5.596;2023-03-04T00:08:08;5.82;;;1.38;;
66633;SDS011;53546;52.184;5.596;2023-03-04T00:10:34;5.78;;;1.40;;
66633;SDS011;53546;52.184;5.596;2023-03-04T00:12:59;4.20;;;1.50;;
66633;SDS011;53546;52.184;5.596;2023-03-04T00:15:25;3.47;;;1.40;;
66633;SDS011;53546;52.184;5.596;2023-03-04T00:17:50;5.35;;;1.40;;
66633;SDS011;53546;52.184;5.596;2023-03-04T00:20:15;4.30;;;1.20;;
66633;SDS011;53546;52.184;5.596;2023-03-04T00:22:41;4.53;;;1.30;;
66633;SDS011;53546;52.184;5.596;2023-03-04T00:25:06;3.70;;;1.38;;
66633;SDS011;53546;52.184;5.596;2023-03-04T00:27:32;2.92;;;1.27;;
66633;SDS011;53546;52.184;5.596;2023-03-04T00:29:57;2.72;;;1.23;;
66633;SDS011;53546;52.184;5.596;2023-03-04T00:32:23;4.65;;;1.77;;
66633;SDS011;53546;52.184;5.596;2023-03-04T00:34:48;1.45;;;0.98;;
66633;SDS011;53546;52.184;5.596;2023-03-04T00:37:14;3.35;;;1.00;;
66633;SDS011;53546;52.184;5.596;2023-03-04T00:39:39;5.28;;;1.42;;
66633;SDS011;53546;52.184;5.596;2023-03-04T00:42:04;2.10;;;1.10;;
66633;SDS011;53546;52.184;5.596;2023-03-04T00:44:30;4.78;;;1.73;;
66633;SDS011;53546;52.184;5.596;2023-03-04T00:46:55;3.53;;;1.60;;
66633;SDS011;53546;52.184;5.596;2023-03-04T00:49:21;2.88;;;1.10;;
66633;SDS011;53546;52.184;5.596;2023-03-04T00:51:46;3.10;;;1.33;;
66633;SDS011;53546;52.184;5.596;2023-03-04T00:54:12;3.88;;;1.27;;
66633;SDS011;53546;52.184;5.596;2023-03-04T00:56:37;2.47;;;1.17;;
66633;SDS011;53546;52.184;5.596;2023-03-04T00:59:03;3.08;;;1.27;;
66633;SDS011;53546;52.184;5.596;2023-03-04T01:01:28;5.13;;;1.40;;
66633;SDS011;53546;52.184;5.596;2023-03-04T01:03:53;1.90;;;1.00;;
66633;SDS011;53546;52.184;5.596;2023-03-04T01:06:19;2.88;;;1.20;;
66633;SDS011;53546;52.184;5.596;2023-03-04T01:08:44;3.05;;;1.38;;
66633;SDS011;53546;52.184;5.596;2023-03-04T01:11:10;1.98;;;0.90;;
66633;SDS011;53546;52.184;5.596;2023-03-04T01:13:35;3.67;;;1.10;;
66633;SDS011;53546;52.184;5.596;2023-03-04T01:16:01;4.47;;;1.42;;
66633;SDS011;53546;52.184;5.596;2023-03-04T01:18:27;5.22;;;1.45;;
66633;SDS011;53546;52.184;5.596;2023-03-04T01:20:53;1.90;;;1.10;;
66633;SDS011;53546;52.184;5.596;2023-03-04T01:23:18;2.58;;;1.27;;
66633;SDS011;53546;52.184;5.596;2023-03-04T01:25:44;3.25;;;1.20;;
66633;SDS011;53546;52.184;5.596;2023-03-04T01:28:09;3.60;;;1.20;;
66633;SDS011;53546;52.184;5.596;2023-03-04T01:30:35;3.25;;;1.20;;
66633;SDS011;53546;52.184;5.596;2023-03-04T01:33:00;2.20;;;0.90;;
66633;SDS011;53546;52.184;5.596;2023-03-04T01:35:26;2.05;;;1.00;;
66633;SDS011;53546;52.184;5.596;2023-03-04T01:37:51;2.97;;;1.10;;
66633;SDS011;53546;52.184;5.596;2023-03-04T01:40:17;2.17;;;1.08;;
66633;SDS011;53546;52.184;5.596;2023-03-04T01:42:42;2.30;;;1.20;;
66633;SDS011;53546;52.184;5.596;2023-03-04T01:45:15;1.98;;;1.20;;
66633;SDS011;53546;52.184;5.596;2023-03-04T01:47:43;1.40;;;1.00;;
66633;SDS011;53546;52.184;5.596;2023-03-04T01:50:33;3.08;;;1.35;;
66633;SDS011;53546;52.184;5.596;2023-03-04T01:52:59;2.38;;;1.27;;
66633;SDS011;53546;52.184;5.596;2023-03-04T01:55:25;2.22;;;0.82;;
66633;SDS011;53546;52.184;5.596;2023-03-04T01:57:51;3.05;;;1.13;;
66633;SDS011;53546;52.184;5.596;2023-03-04T02:00:37;2.42;;;1.13;;
66633;SDS011;53546;52.184;5.596;2023-03-04T02:03:06;3.45;;;1.40;;
66633;SDS011;53546;52.184;5.596;2023-03-04T02:05:36;3.35;;;1.20;;
66633;SDS011;53546;52.184;5.596;2023-03-04T02:08:02;2.67;;;1.05;;
66633;SDS011;53546;52.184;5.596;2023-03-04T02:10:28;3.70;;;1.02;;
66633;SDS011;53546;52.184;5.596;2023-03-04T02:12:54;3.10;;;1.67;;
66633;SDS011;53546;52.184;5.596;2023-03-04T02:15:21;2.25;;;1.00;;
66633;SDS011;53546;52.184;5.596;2023-03-04T02:17:47;2.90;;;1.00;;
66633;SDS011;53546;52.184;5.596;2023-03-04T02:28:34;4.35;;;1.10;;
66633;SDS011;53546;52.184;5.596;2023-03-04T02:30:59;1.95;;;1.13;;
66633;SDS011;53546;52.184;5.596;2023-03-04T02:33:24;1.67;;;0.90;;
66633;SDS011;53546;52.184;5.596;2023-03-04T02:35:50;2.15;;;0.90;;
66633;SDS011;53546;52.184;5.596;2023-03-04T02:38:15;0.98;;;0.73;;
66633;SDS011;53546;52.184;5.596;2023-03-04T02:40:41;2.55;;;1.00;;
66633;SDS011;53546;52.184;5.596;2023-03-04T02:43:12;2.10;;;1.00;;
66633;SDS011;53546;52.184;5.596;2023-03-04T02:45:48;2.05;;;1.10;;
66633;SDS011;53546;52.184;5.596;2023-03-04T02:48:15;2.33;;;1.15;;
66633;SDS011;53546;52.184;5.596;2023-03-04T02:50:46;3.53;;;1.20;;
66633;SDS011;53546;52.184;5.596;2023-03-04T02:53:13;3.00;;;1.13;;
66633;SDS011;53546;52.184;5.596;2023-03-04T02:55:39;4.60;;;1.08;;
66633;SDS011;53546;52.184;5.596;2023-03-04T02:58:06;3.17;;;1.08;;
66633;SDS011;53546;52.184;5.596;2023-03-04T03:00:32;2.15;;;1.13;;
66633;SDS011;53546;52.184;5.596;2023-03-04T03:03:00;2.85;;;1.00;;
66633;SDS011;53546;52.184;5.596;2023-03-04T03:05:26;3.25;;;1.10;;
66633;SDS011;53546;52.184;5.596;2023-03-04T03:07:54;2.40;;;0.80;;
66633;SDS011;53546;52.184;5.596;2023-03-04T03:10:20;6.95;;;1.40;;
66633;SDS011;53546;52.184;5.596;2023-03-04T03:12:45;1.75;;;0.90;;
66633;SDS011;53546;52.184;5.596;2023-03-04T03:15:11;2.90;;;1.05;;
66633;SDS011;53546;52.184;5.596;2023-03-04T03:17:37;1.48;;;0.80;;
66633;SDS011;53546;52.184;5.596;2023-03-04T03:20:02;1.95;;;1.05;;
66633;SDS011;53546;52.184;5.596;2023-03-04T03:22:28;4.95;;;1.40;;
66633;SDS011;53546;52.184;5.596;2023-03-04T03:24:53;4.30;;;0.90;;
66633;SDS011;53546;52.184;5.596;2023-03-04T03:27:19;2.55;;;0.98;;
66633;SDS011;53546;52.184;5.596;2023-03-04T03:29:44;2.70;;;1.17;;
66633;SDS011;53546;52.184;5.596;2023-03-04T03:32:10;1.67;;;1.00;;
66633;SDS011;53546;52.184;5.596;2023-03-04T03:34:35;2.03;;;0.68;;
66633;SDS011;53546;52.184;5.596;2023-03-04T03:37:00;2.22;;;0.93;;
66633;SDS011;53546;52.184;5.596;2023-03-04T03:39:26;1.98;;;0.90;;
66633;SDS011;53546;52.184;5.596;2023-03-04T03:41:51;3.97;;;1.08;;
66633;SDS011;53546;52.184;5.596;2023-03-04T03:44:17;3.42;;;0.90;;
66633;SDS011;53546;52.184;5.596;2023-03-04T03:46:42;2.55;;;1.00;;
66633;SDS011;53546;52.184;5.596;2023-03-04T03:49:07;2.10;;;0.90;;
66633;SDS011;53546;52.184;5.596;2023-03-04T03:51:33;3.47;;;1.02;;
66633;SDS011;53546;52.184;5.596;2023-03-04T03:53:58;3.13;;;1.02;;
66633;SDS011;53546;52.184;5.596;2023-03-04T03:56:23;2.67;;;1.08;;
66633;SDS011;53546;52.184;5.596;2023-03-04T03:58:49;2.58;;;1.00;;
66633;SDS011;53546;52.184;5.596;2023-03-04T04:01:14;3.38;;;1.10;;
66633;SDS011;53546;52.184;5.596;2023-03-04T04:03:40;4.03;;;1.00;;
66633;SDS011;53546;52.184;5.596;2023-03-04T04:06:05;3.05;;;1.08;;
66633;SDS011;53546;52.184;5.596;2023-03-04T04:08:31;2.70;;;1.08;;
66633;SDS011;53546;52.184;5.596;2023-03-04T04:10:57;2.50;;;1.10;;
66633;SDS011;53546;52.184;5.596;2023-03-04T04:13:22;1.63;;;0.80;;
66633;SDS011;53546;52.184;5.596;2023-03-04T04:15:52;4.20;;;1.42;;
66633;SDS011;53546;52.184;5.596;2023-03-04T04:18:17;4.38;;;0.80;;
66633;SDS011;53546;52.184;5.596;2023-03-04T04:20:46;2.35;;;0.90;;
66633;SDS011;53546;52.184;5.596;2023-03-04T04:23:14;3.60;;;0.98;;
66633;SDS011;53546;52.184;5.596;2023-03-04T04:25:40;1.90;;;0.95;;
66633;SDS011;53546;52.184;5.596;2023-03-04T04:28:05;3.63;;;1.17;;
66633;SDS011;53546;52.184;5.596;2023-03-04T04:30:31;2.72;;;1.10;;
66633;SDS011;53546;52.184;5.596;2023-03-04T04:32:56;0.90;;;0.82;;
66633;SDS011;53546;52.184;5.596;2023-03-04T04:35:25;1.10;;;0.75;;
66633;SDS011;53546;52.184;5.596;2023-03-04T04:37:51;1.45;;;0.63;;
66633;SDS011;53546;52.184;5.596;2023-03-04T04:40:16;2.35;;;0.90;;
66633;SDS011;53546;52.184;5.596;2023-03-04T04:42:41;1.92;;;1.00;;
66633;SDS011;53546;52.184;5.596;2023-03-04T04:45:07;2.35;;;1.17;;
66633;SDS011;53546;52.184;5.596;2023-03-04T04:47:33;2.28;;;0.77;;
66633;SDS011;53546;52.184;5.596;2023-03-04T04:49:58;1.77;;;0.95;;
66633;SDS011;53546;52.184;5.596;2023-03-04T04:52:24;2.50;;;0.90;;
66633;SDS011;53546;52.184;5.596;2023-03-04T04:54:49;2.45;;;1.00;;
66633;SDS011;53546;52.184;5.596;2023-03-04T04:57:14;2.35;;;0.95;;
66633;SDS011;53546;52.184;5.596;2023-03-04T04:59:40;2.35;;;0.90;;
66633;SDS011;53546;52.184;5.596;2023-03-04T05:02:05;1.20;;;0.75;;
66633;SDS011;53546;52.184;5.596;2023-03-04T05:04:31;2.50;;;1.00;;
66633;SDS011;53546;52.184;5.596;2023-03-04T05:06:56;2.83;;;0.90;;
66633;SDS011;53546;52.184;5.596;2023-03-04T05:09:21;2.58;;;0.77;;
66633;SDS011;53546;52.184;5.596;2023-03-04T05:11:47;2.30;;;0.93;;
66633;SDS011;53546;52.184;5.596;2023-03-04T05:14:13;4.00;;;0.90;;
66633;SDS011;53546;52.184;5.596;2023-03-04T05:16:38;1.95;;;0.90;;
66633;SDS011;53546;52.184;5.596;2023-03-04T05:19:03;1.70;;;0.75;;
66633;SDS011;53546;52.184;5.596;2023-03-04T05:21:29;1.90;;;0.88;;
66633;SDS011;53546;52.184;5.596;2023-03-04T05:23:54;1.92;;;0.90;;
66633;SDS011;53546;52.184;5.596;2023-03-04T05:26:20;3.00;;;1.10;;
66633;SDS011;53546;52.184;5.596;2023-03-04T05:28:45;0.70;;;0.70;;
66633;SDS011;53546;52.184;5.596;2023-03-04T05:31:11;1.63;;;0.80;;
66633;SDS011;53546;52.184;5.596;2023-03-04T05:33:36;1.98;;;1.02;;
66633;SDS011;53546;52.184;5.596;2023-03-04T05:36:02;2.58;;;1.20;;
66633;SDS011;53546;52.184;5.596;2023-03-04T05:38:28;3.35;;;0.98;;
66633;SDS011;53546;52.184;5.596;2023-03-04T05:40:55;1.45;;;0.80;;
66633;SDS011;53546;52.184;5.596;2023-03-04T05:43:22;2.08;;;0.93;;
66633;SDS011;53546;52.184;5.596;2023-03-04T05:45:48;1.90;;;0.75;;
66633;SDS011;53546;52.184;5.596;2023-03-04T05:48:14;2.55;;;0.82;;
66633;SDS011;53546;52.184;5.596;2023-03-04T05:50:39;1.23;;;0.70;;
66633;SDS011;53546;52.184;5.596;2023-03-04T05:53:04;1.70;;;0.82;;
66633;SDS011;53546;52.184;5.596;2023-03-04T05:55:30;2.10;;;0.90;;
66633;SDS011;53546;52.184;5.596;2023-03-04T05:58:00;2.58;;;0.98;;
66633;SDS011;53546;52.184;5.596;2023-03-04T06:00:26;1.35;;;0.80;;
66633;SDS011;53546;52.184;5.596;2023-03-04T06:02:52;3.03;;;1.05;;
66633;SDS011;53546;52.184;5.596;2023-03-04T06:05:17;0.80;;;0.68;;
66633;SDS011;53546;52.184;5.596;2023-03-04T06:07:43;1.17;;;0.70;;
66633;SDS011;53546;52.184;5.596;2023-03-04T06:10:09;2.55;;;0.70;;
66633;SDS011;53546;52.184;5.596;2023-03-04T06:12:37;1.83;;;0.88;;
66633;SDS011;53546;52.184;5.596;2023-03-04T06:15:02;1.30;;;0.65;;
66633;SDS011;53546;52.184;5.596;2023-03-04T06:17:30;1.83;;;1.02;;
66633;SDS011;53546;52.184;5.596;2023-03-04T06:19:59;2.83;;;0.95;;
66633;SDS011;53546;52.184;5.596;2023-03-04T06:22:25;1.52;;;0.90;;
66633;SDS011;53546;52.184;5.596;2023-03-04T06:24:50;1.65;;;0.80;;
66633;SDS011;53546;52.184;5.596;2023-03-04T06:27:15;1.77;;;0.80;;
66633;SDS011;53546;52.184;5.596;2023-03-04T06:29:41;4.00;;;1.00;;
66633;SDS011;53546;52.184;5.596;2023-03-04T06:32:06;2.05;;;0.70;;
66633;SDS011;53546;52.184;5.596;2023-03-04T06:34:32;2.38;;;0.88;;
66633;SDS011;53546;52.184;5.596;2023-03-04T06:36:57;0.88;;;0.70;;
66633;SDS011;53546;52.184;5.596;2023-03-04T06:39:23;2.63;;;0.80;;
66633;SDS011;53546;52.184;5.596;2023-03-04T06:41:50;2.10;;;1.00;;
66633;SDS011;53546;52.184;5.596;2023-03-04T06:44:15;0.90;;;0.50;;
66633;SDS011;53546;52.184;5.596;2023-03-04T06:46:40;1.98;;;0.75;;
66633;SDS011;53546;52.184;5.596;2023-03-04T06:49:06;2.72;;;0.93;;
66633;SDS011;53546;52.184;5.596;2023-03-04T06:51:31;2.30;;;0.90;;
66633;SDS011;53546;52.184;5.596;2023-03-04T06:53:57;3.17;;;0.90;;
66633;SDS011;53546;52.184;5.596;2023-03-04T06:56:22;3.67;;;0.77;;
66633;SDS011;53546;52.184;5.596;2023-03-04T06:58:47;3.05;;;1.05;;
66633;SDS011;53546;52.184;5.596;2023-03-04T07:01:23;1.35;;;0.80;;
66633;SDS011;53546;52.184;5.596;2023-03-04T07:03:51;1.98;;;0.88;;
66633;SDS011;53546;52.184;5.596;2023-03-04T07:06:17;2.47;;;1.08;;
66633;SDS011;53546;52.184;5.596;2023-03-04T07:08:45;1.30;;;0.73;;
66633;SDS011;53546;52.184;5.596;2023-03-04T07:11:10;1.58;;;0.82;;
66633;SDS011;53546;52.184;5.596;2023-03-04T07:13:36;1.40;;;0.60;;
66633;SDS011;53546;52.184;5.596;2023-03-04T07:16:09;1.73;;;0.68;;
66633;SDS011;53546;52.184;5.596;2023-03-04T07:18:36;1.23;;;0.80;;
66633;SDS011;53546;52.184;5.596;2023-03-04T07:21:01;1.45;;;0.77;;
66633;SDS011;53546;52.184;5.596;2023-03-04T07:23:27;2.05;;;0.80;;
66633;SDS011;53546;52.184;5.596;2023-03-04T07:25:52;2.70;;;0.95;;
66633;SDS011;53546;52.184;5.596;2023-03-04T07:28:18;1.05;;;0.75;;
66633;SDS011;53546;52.184;5.596;2023-03-04T07:30:43;1.95;;;1.00;;
66633;SDS011;53546;52.184;5.596;2023-03-04T07:33:09;1.50;;;0.80;;
66633;SDS011;53546;52.184;5.596;2023-03-04T07:35:35;1.55;;;1.08;;
66633;SDS011;53546;52.184;5.596;2023-03-04T07:38:01;1.73;;;0.80;;
66633;SDS011;53546;52.184;5.596;2023-03-04T07:40:26;2.22;;;1.00;;
66633;SDS011;53546;52.184;5.596;2023-03-04T07:42:52;1.23;;;0.88;;
66633;SDS011;53546;52.184;5.596;2023-03-04T07:45:18;2.13;;;1.00;;
66633;SDS011;53546;52.184;5.596;2023-03-04T07:47:44;1.45;;;0.95;;
66633;SDS011;53546;52.184;5.596;2023-03-04T07:50:09;6.10;;;1.05;;
66633;SDS011;53546;52.184;5.596;2023-03-04T07:52:42;1.80;;;0.90;;
66633;SDS011;53546;52.184;5.596;2023-03-04T07:57:37;1.67;;;0.95;;
66633;SDS011;53546;52.184;5.596;2023-03-04T08:00:03;1.73;;;1.00;;
66633;SDS011;53546;52.184;5.596;2023-03-04T08:02:29;1.65;;;0.90;;
66633;SDS011;53546;52.184;5.596;2023-03-04T08:04:54;2.22;;;0.90;;
66633;SDS011;53546;52.184;5.596;2023-03-04T08:07:20;1.77;;;0.90;;
66633;SDS011;53546;52.184;5.596;2023-03-04T08:09:45;1.00;;;0.65;;
66633;SDS011;53546;52.184;5.596;2023-03-04T08:12:10;2.55;;;1.10;;
66633;SDS011;53546;52.184;5.596;2023-03-04T08:14:36;2.92;;;1.08;;
66633;SDS011;53546;52.184;5.596;2023-03-04T08:17:01;1.25;;;0.82;;
66633;SDS011;53546;52.184;5.596;2023-03-04T08:19:27;3.58;;;1.15;;
66633;SDS011;53546;52.184;5.596;2023-03-04T08:21:52;1.15;;;0.85;;
66633;SDS011;53546;52.184;5.596;2023-03-04T08:24:18;3.08;;;1.20;;
66633;SDS011;53546;52.184;5.596;2023-03-04T08:26:44;1.23;;;0.90;;
66633;SDS011;53546;52.184;5.596;2023-03-04T08:29:12;2.53;;;0.90;;
66633;SDS011;53546;52.184;5.596;2023-03-04T08:31:40;1.58;;;0.88;;
66633;SDS011;53546;52.184;5.596;2023-03-04T08:34:05;0.75;;;0.63;;
66633;SDS011;53546;52.184;5.596;2023-03-04T08:36:32;1.17;;;0.70;;
66633;SDS011;53546;52.184;5.596;2023-03-04T08:38:58;0.70;;;0.70;;
66633;SDS011;53546;52.184;5.596;2023-03-04T08:41:23;0.80;;;0.70;;
66633;SDS011;53546;52.184;5.596;2023-03-04T08:43:51;2.22;;;0.70;;
66633;SDS011;53546;52.184;5.596;2023-03-04T08:46:16;1.27;;;0.50;;
66633;SDS011;53546;52.184;5.596;2023-03-04T08:48:42;1.45;;;0.60;;
66633;SDS011;53546;52.184;5.596;2023-03-04T08:51:08;0.75;;;0.50;;
66633;SDS011;53546;52.184;5.596;2023-03-04T08:53:35;0.65;;;0.65;;
66633;SDS011;53546;52.184;5.596;2023-03-04T08:56:01;2.20;;;0.65;;
66633;SDS011;53546;52.184;5.596;2023-03-04T08:58:26;1.10;;;0.63;;
66633;SDS011;53546;52.184;5.596;2023-03-04T09:00:52;1.70;;;0.60;;
66633;SDS011;53546;52.184;5.596;2023-03-04T09:03:18;1.27;;;0.70;;
66633;SDS011;53546;52.184;5.596;2023-03-04T09:05:45;1.38;;;0.70;;
66633;SDS011;53546;52.184;5.596;2023-03-04T09:08:11;0.73;;;0.47;;
66633;SDS011;53546;52.184;5.596;2023-03-04T09:10:37;1.00;;;0.80;;
66633;SDS011;53546;52.184;5.596;2023-03-04T09:13:03;0.95;;;0.50;;
66633;SDS011;53546;52.184;5.596;2023-03-04T09:15:30;1.15;;;0.52;;
66633;SDS011;53546;52.184;5.596;2023-03-04T09:17:56;1.02;;;0.70;;
66633;SDS011;53546;52.184;5.596;2023-03-04T09:20:21;1.02;;;0.60;;
66633;SDS011;53546;52.184;5.596;2023-03-04T09:22:47;0.80;;;0.50;;
66633;SDS011;53546;52.184;5.596;2023-03-04T09:25:13;1.08;;;0.57;;
66633;SDS011;53546;52.184;5.596;2023-03-04T09:27:39;1.35;;;0.80;;
66633;SDS011;53546;52.184;5.596;2023-03-04T09:30:05;1.23;;;0.70;;
66633;SDS011;53546;52.184;5.596;2023-03-04T09:32:31;1.40;;;0.63;;
66633;SDS011;53546;52.184;5.596;2023-03-04T09:34:57;2.38;;;0.90;;
66633;SDS011;53546;52.184;5.596;2023-03-04T09:37:22;1.13;;;0.63;;
66633;SDS011;53546;52.184;5.596;2023-03-04T09:39:48;1.73;;;0.77;;
66633;SDS011;53546;52.184;5.596;2023-03-04T09:42:18;0.70;;;0.60;;
66633;SDS011;53546;52.184;5.596;2023-03-04T09:44:50;1.08;;;0.70;;
66633;SDS011;53546;52.184;5.596;2023-03-04T09:47:16;1.42;;;0.60;;
66633;SDS011;53546;52.184;5.596;2023-03-04T09:49:48;2.63;;;0.60;;
66633;SDS011;53546;52.184;5.596;2023-03-04T09:52:37;1.17;;;0.45;;
66633;SDS011;53546;52.184;5.596;2023-03-04T10:00:24;3.55;;;0.70;;
66633;SDS011;53546;52.184;5.596;2023-03-04T10:05:31;4.70;;;0.60;;
66633;SDS011;53546;52.184;5.596;2023-03-04T10:07:59;2.67;;;0.80;;
66633;SDS011;53546;52.184;5.596;2023-03-04T10:10:39;1.05;;;0.40;;
66633;SDS011;53546;52.184;5.596;2023-03-04T10:13:10;3.80;;;0.70;;
66633;SDS011;53546;52.184;5.596;2023-03-04T10:15:40;2.38;;;0.60;;
66633;SDS011;53546;52.184;5.596;2023-03-04T10:18:27;1.17;;;0.70;;
66633;SDS011;53546;52.184;5.596;2023-03-04T10:23:43;1.80;;;0.88;;
66633;SDS011;53546;52.184;5.596;2023-03-04T10:26:09;2.15;;;0.47;;
66633;SDS011;53546;52.184;5.596;2023-03-04T10:28:38;1.58;;;0.47;;
66633;SDS011;53546;52.184;5.596;2023-03-04T10:33:41;1.42;;;0.60;;
66633;SDS011;53546;52.184;5.596;2023-03-04T10:38:47;2.75;;;0.80;;
66633;SDS011;53546;52.184;5.596;2023-03-04T10:41:14;1.13;;;0.50;;
66633;SDS011;53546;52.184;5.596;2023-03-04T10:43:41;0.82;;;0.60;;
66633;SDS011;53546;52.184;5.596;2023-03-04T10:46:09;1.02;;;0.50;;
66633;SDS011;53546;52.184;5.596;2023-03-04T10:48:36;1.95;;;0.50;;
66633;SDS011;53546;52.184;5.596;2023-03-04T10:51:21;0.90;;;0.60;;
66633;SDS011;53546;52.184;5.596;2023-03-04T10:53:49;5.78;;;0.52;;
66633;SDS011;53546;52.184;5.596;2023-03-04T10:56:30;0.98;;;0.50;;
66633;SDS011;53546;52.184;5.596;2023-03-04T11:01:59;0.60;;;0.45;;
66633;SDS011;53546;52.184;5.596;2023-03-04T11:04:51;1.05;;;0.50;;
66633;SDS011;53546;52.184;5.596;2023-03-04T11:07:24;1.05;;;0.57;;
66633;SDS011;53546;52.184;5.596;2023-03-04T11:09:51;6.00;;;0.98;;
66633;SDS011;53546;52.184;5.596;2023-03-04T11:12:18;2.08;;;0.70;;
66633;SDS011;53546;52.184;5.596;2023-03-04T11:17:16;2.63;;;1.00;;
66633;SDS011;53546;52.184;5.596;2023-03-04T11:22:30;1.65;;;0.47;;
66633;SDS011;53546;52.184;5.596;2023-03-04T11:25:06;1.85;;;0.68;;
66633;SDS011;53546;52.184;5.596;2023-03-04T11:27:37;1.83;;;0.75;;
66633;SDS011;53546;52.184;5.596;2023-03-04T11:30:19;0.95;;;0.50;;
66633;SDS011;53546;52.184;5.596;2023-03-04T11:32:51;1.15;;;0.50;;
66633;SDS011;53546;52.184;5.596;2023-03-04T11:35:27;0.98;;;0.47;;
66633;SDS011;53546;52.184;5.596;2023-03-04T11:40:36;3.35;;;0.82;;
66633;SDS011;53546;52.184;5.596;2023-03-04T11:51:09;2.03;;;0.60;;
66633;SDS011;53546;52.184;5.596;2023-03-04T11:53:55;3.03;;;0.65;;
66633;SDS011;53546;52.184;5.596;2023-03-04T11:56:51;1.08;;;0.93;;
66633;SDS011;53546;52.184;5.596;2023-03-04T11:59:27;0.60;;;0.60;;
66633;SDS011;53546;52.184;5.596;2023-03-04T12:02:14;1.08;;;0.70;;
66633;SDS011;53546;52.184;5.596;2023-03-04T12:15:53;3.00;;;0.80;;
66633;SDS011;53546;52.184;5.596;2023-03-04T12:18:36;1.33;;;0.63;;
66633;SDS011;53546;52.184;5.596;2023-03-04T12:35:27;2.53;;;0.77;;
66633;SDS011;53546;52.184;5.596;2023-03-04T12:44:14;1.30;;;0.75;;
66633;SDS011;53546;52.184;5.596;2023-03-04T12:55:41;2.63;;;1.10;;
66633;SDS011;53546;52.184;5.596;2023-03-04T12:58:12;2.58;;;1.20;;
66633;SDS011;53546;52.184;5.596;2023-03-04T13:03:47;7.78;;;1.30;;
66633;SDS011;53546;52.184;5.596;2023-03-04T13:14:07;7.05;;;1.63;;
66633;SDS011;53546;52.184;5.596;2023-03-04T13:16:54;4.45;;;1.40;;
66633;SDS011;53546;52.184;5.596;2023-03-04T13:22:51;2.42;;;1.20;;
66633;SDS011;53546;52.184;5.596;2023-03-04T13:38:55;4.30;;;1.20;;
66633;SDS011;53546;52.184;5.596;2023-03-04T13:43:40;3.88;;;1.38;;
66633;SDS011;53546;52.184;5.596;2023-03-04T13:53:42;4.97;;;1.60;;
66633;SDS011;53546;52.184;5.596;2023-03-04T14:06:45;2.70;;;1.03;;
66633;SDS011;53546;52.184;5.596;2023-03-04T14:09:15;3.40;;;1.40;;
66633;SDS011;53546;52.184;5.596;2023-03-04T14:11:44;4.20;;;1.48;;
66633;SDS011;53546;52.184;5.596;2023-03-04T14:14:11;2.67;;;1.30;;
66633;SDS011;53546;52.184;5.596;2023-03-04T14:16:38;4.15;;;1.30;;
66633;SDS011;53546;52.184;5.596;2023-03-04T14:19:13;3.67;;;1.27;;
66633;SDS011;53546;52.184;5.596;2023-03-04T14:22:02;3.55;;;1.10;;
66633;SDS011;53546;52.184;5.596;2023-03-04T14:24:54;1.83;;;1.00;;
66633;SDS011;53546;52.184;5.596;2023-03-04T14:27:31;1.90;;;0.95;;
66633;SDS011;53546;52.184;5.596;2023-03-04T14:30:00;2.67;;;1.30;;
66633;SDS011;53546;52.184;5.596;2023-03-04T14:32:28;2.97;;;1.27;;
66633;SDS011;53546;52.184;5.596;2023-03-04T14:34:56;5.88;;;1.20;;
66633;SDS011;53546;52.184;5.596;2023-03-04T14:37:23;5.60;;;2.20;;
66633;SDS011;53546;52.184;5.596;2023-03-04T14:39:52;3.42;;;1.67;;
66633;SDS011;53546;52.184;5.596;2023-03-04T14:42:20;4.20;;;1.67;;
66633;SDS011;53546;52.184;5.596;2023-03-04T14:44:49;2.80;;;1.80;;
66633;SDS011;53546;52.184;5.596;2023-03-04T14:49:58;4.38;;;1.23;;
66633;SDS011;53546;52.184;5.596;2023-03-04T14:52:29;5.85;;;1.83;;
66633;SDS011;53546;52.184;5.596;2023-03-04T14:55:14;3.72;;;1.48;;
66633;SDS011;53546;52.184;5.596;2023-03-04T14:58:15;4.47;;;1.08;;
66633;SDS011;53546;52.184;5.596;2023-03-04T15:00:44;4.28;;;1.33;;
66633;SDS011;53546;52.184;5.596;2023-03-04T15:03:23;2.30;;;1.10;;
66633;SDS011;53546;52.184;5.596;2023-03-04T15:05:50;3.40;;;1.35;;
66633;SDS011;53546;52.184;5.596;2023-03-04T15:08:23;2.95;;;1.00;;
66633;SDS011;53546;52.184;5.596;2023-03-04T15:11:01;5.75;;;1.52;;
66633;SDS011;53546;52.184;5.596;2023-03-04T15:13:38;3.08;;;1.38;;
66633;SDS011;53546;52.184;5.596;2023-03-04T15:16:09;2.30;;;1.17;;
66633;SDS011;53546;52.184;5.596;2023-03-04T15:18:35;2.15;;;1.15;;
66633;SDS011;53546;52.184;5.596;2023-03-04T15:21:03;2.40;;;1.27;;
66633;SDS011;53546;52.184;5.596;2023-03-04T15:23:31;2.10;;;1.00;;
66633;SDS011;53546;52.184;5.596;2023-03-04T15:25:58;1.73;;;1.00;;
66633;SDS011;53546;52.184;5.596;2023-03-04T15:28:26;3.25;;;0.95;;
66633;SDS011;53546;52.184;5.596;2023-03-04T15:30:56;3.70;;;1.08;;
66633;SDS011;53546;52.184;5.596;2023-03-04T15:33:21;7.50;;;1.00;;
66633;SDS011;53546;52.184;5.596;2023-03-04T15:35:49;2.13;;;1.10;;
66633;SDS011;53546;52.184;5.596;2023-03-04T15:38:17;4.00;;;1.35;;
66633;SDS011;53546;52.184;5.596;2023-03-04T15:40:45;3.05;;;0.90;;
66633;SDS011;53546;52.184;5.596;2023-03-04T15:43:16;5.10;;;1.25;;
66633;SDS011;53546;52.184;5.596;2023-03-04T15:48:11;1.27;;;0.77;;
66633;SDS011;53546;52.184;5.596;2023-03-04T15:50:42;1.25;;;1.00;;
66633;SDS011;53546;52.184;5.596;2023-03-04T15:53:14;2.33;;;1.05;;
66633;SDS011;53546;52.184;5.596;2023-03-04T15:55:50;1.85;;;0.98;;
66633;SDS011;53546;52.184;5.596;2023-03-04T15:58:18;3.78;;;1.13;;
66633;SDS011;53546;52.184;5.596;2023-03-04T16:00:44;2.60;;;1.20;;
66633;SDS011;53546;52.184;5.596;2023-03-04T16:03:17;1.25;;;0.80;;
66633;SDS011;53546;52.184;5.596;2023-03-04T16:05:44;1.67;;;0.90;;
66633;SDS011;53546;52.184;5.596;2023-03-04T16:08:11;1.65;;;1.00;;
66633;SDS011;53546;52.184;5.596;2023-03-04T16:10:38;3.78;;;1.45;;
66633;SDS011;53546;52.184;5.596;2023-03-04T16:13:04;2.42;;;0.75;;
66633;SDS011;53546;52.184;5.596;2023-03-04T16:15:29;1.08;;;0.95;;
66633;SDS011;53546;52.184;5.596;2023-03-04T16:17:55;1.67;;;0.80;;
66633;SDS011;53546;52.184;5.596;2023-03-04T16:20:22;2.90;;;1.10;;
66633;SDS011;53546;52.184;5.596;2023-03-04T16:22:53;1.45;;;1.00;;
66633;SDS011;53546;52.184;5.596;2023-03-04T16:25:21;1.58;;;0.80;;
66633;SDS011;53546;52.184;5.596;2023-03-04T16:27:49;2.33;;;1.10;;
66633;SDS011;53546;52.184;5.596;2023-03-04T16:30:17;1.35;;;0.90;;
66633;SDS011;53546;52.184;5.596;2023-03-04T16:32:44;1.30;;;1.10;;
66633;SDS011;53546;52.184;5.596;2023-03-04T16:35:09;1.33;;;0.80;;
66633;SDS011;53546;52.184;5.596;2023-03-04T16:37:35;2.35;;;0.95;;
66633;SDS011;53546;52.184;5.596;2023-03-04T16:40:01;3.88;;;1.00;;
66633;SDS011;53546;52.184;5.596;2023-03-04T16:42:28;1.63;;;0.98;;
66633;SDS011;53546;52.184;5.596;2023-03-04T16:44:54;1.52;;;0.80;;
66633;SDS011;53546;52.184;5.596;2023-03-04T16:47:20;2.72;;;1.00;;
66633;SDS011;53546;52.184;5.596;2023-03-04T16:49:46;3.30;;;0.93;;
66633;SDS011;53546;52.184;5.596;2023-03-04T16:52:21;1.00;;;0.75;;
66633;SDS011;53546;52.184;5.596;2023-03-04T16:54:49;2.97;;;1.25;;
66633;SDS011;53546;52.184;5.596;2023-03-04T16:57:15;1.98;;;0.95;;
66633;SDS011;53546;52.184;5.596;2023-03-04T16:59:41;2.38;;;1.00;;
66633;SDS011;53546;52.184;5.596;2023-03-04T17:02:16;3.30;;;1.00;;
66633;SDS011;53546;52.184;5.596;2023-03-04T17:04:44;3.42;;;1.20;;
66633;SDS011;53546;52.184;5.596;2023-03-04T17:07:10;2.22;;;1.10;;
66633;SDS011;53546;52.184;5.596;2023-03-04T17:09:36;1.95;;;0.95;;
66633;SDS011;53546;52.184;5.596;2023-03-04T17:12:06;2.45;;;1.02;;